Time;durP1;ratioP1;P1;durP2;ratioP2;P2;SDS_P1;SDS_P2;PMS_P1;PMS_P2;Temp;Humidity;BMP_temperature;BMP_pressure;BME280_temperature;BME280_humidity;BME280_pressure;Samples;Min_cycle;Max_cycle;Signal;HPM_P1;HPM_P2
2022/06/14 00:01:32;;;;;;;2.95;1.02;;;17.60;80.50;;;;;;4994725;28;20078;-64
2022/06/14 00:03:58;;;;;;;4.20;1.20;;;17.60;80.40;;;;;;4994653;28;20042;-64
2022/06/14 00:06:28;;;;;;;2.03;0.90;;;17.50;80.90;;;;;;4993652;28;20043;-63
2022/06/14 00:08:54;;;;;;;4.37;0.90;;;17.40;81.40;;;;;;4981481;28;20505;-64
2022/06/14 00:11:26;;;;;;;3.35;0.82;;;17.50;81.50;;;;;;4992429;28;20320;-64
2022/06/14 00:13:54;;;;;;;2.25;0.80;;;17.50;82.00;;;;;;4993163;28;20066;-64
2022/06/14 00:16:21;;;;;;;6.68;1.02;;;17.40;81.90;;;;;;4994443;28;20089;-64
2022/06/14 00:18:46;;;;;;;2.53;1.08;;;17.40;82.00;;;;;;4994436;28;20046;-64
2022/06/14 00:21:13;;;;;;;3.92;1.13;;;17.40;82.50;;;;;;4994436;28;20125;-64
2022/06/14 00:23:39;;;;;;;3.35;1.20;;;17.40;82.50;;;;;;4994389;28;20134;-64
2022/06/14 00:26:06;;;;;;;2.22;1.15;;;17.40;82.90;;;;;;4994387;28;20069;-63
2022/06/14 00:28:33;;;;;;;6.45;1.50;;;17.40;82.90;;;;;;4994270;28;20038;-64
2022/06/14 00:31:21;;;;;;;2.42;1.20;;;17.40;83.70;;;;;;4994553;28;20030;-64
2022/06/14 00:33:48;;;;;;;4.82;1.50;;;17.20;83.60;;;;;;4994229;28;20050;-64
2022/06/14 00:36:34;;;;;;;4.15;1.15;;;17.30;83.90;;;;;;4994206;28;20414;-64
2022/06/14 00:39:05;;;;;;;3.50;1.38;;;17.20;84.20;;;;;;4994123;28;20088;-64
2022/06/14 00:41:43;;;;;;;3.97;1.40;;;17.30;84.60;;;;;;4994141;28;20049;-64
2022/06/14 00:44:19;;;;;;;3.03;1.05;;;17.10;84.50;;;;;;4994203;28;20042;-64
2022/06/14 00:47:11;;;;;;;4.90;1.65;;;17.10;85.10;;;;;;4994291;28;20394;-64
2022/06/14 00:49:50;;;;;;;4.20;1.02;;;17.00;85.20;;;;;;4994014;28;20038;-64
2022/06/14 00:52:25;;;;;;;3.85;1.13;;;17.00;85.60;;;;;;4993896;28;20041;-64
2022/06/14 00:55:04;;;;;;;5.20;1.33;;;17.00;85.80;;;;;;4993806;28;20099;-64
2022/06/14 00:57:39;;;;;;;5.53;1.45;;;17.00;85.80;;;;;;4993792;28;20062;-64
2022/06/14 01:00:13;;;;;;;5.07;1.63;;;17.00;85.90;;;;;;4993792;28;20160;-64
2022/06/14 01:02:44;;;;;;;5.20;1.30;;;17.00;86.30;;;;;;4993676;28;20092;-64
2022/06/14 01:05:14;;;;;;;;;;;17.00;86.60;;;;;;4993870;28;20046;-64
2022/06/14 01:07:48;;;;;;;7.57;1.73;;;16.90;86.90;;;;;;4993866;28;20369;-64
2022/06/14 01:10:41;;;;;;;3.13;1.25;;;16.90;86.80;;;;;;4993483;28;20712;-64
2022/06/14 01:13:07;;;;;;;4.43;1.35;;;17.00;86.80;;;;;;4991751;28;20030;-64
2022/06/14 01:15:34;;;;;;;6.07;1.90;;;16.90;86.80;;;;;;4993497;28;20382;-64
2022/06/14 01:18:08;;;;;;;5.45;1.48;;;16.80;87.20;;;;;;4993567;28;20038;-64
2022/06/14 01:20:35;;;;;;;6.07;1.40;;;16.70;87.80;;;;;;4993644;28;20133;-63
2022/06/14 01:23:02;;;;;;;5.40;1.70;;;16.80;87.70;;;;;;4993655;28;20045;-64
2022/06/14 01:25:35;;;;;;;5.20;1.23;;;16.80;87.80;;;;;;4993564;28;20046;-64
2022/06/14 01:28:03;;;;;;;4.50;1.42;;;16.80;88.20;;;;;;4993746;28;20030;-64
2022/06/14 01:30:35;;;;;;;6.03;1.20;;;16.70;88.30;;;;;;4993342;28;20030;-64
2022/06/14 01:33:26;;;;;;;4.22;1.27;;;16.60;88.70;;;;;;4993441;28;20043;-64
2022/06/14 01:35:57;;;;;;;2.67;1.10;;;16.50;88.20;;;;;;4993227;28;20049;-64
2022/06/14 01:38:24;;;;;;;9.10;1.67;;;16.50;88.70;;;;;;4993261;28;20060;-64
2022/06/14 01:40:56;;;;;;;6.55;1.75;;;16.40;88.80;;;;;;4993263;28;20052;-64
2022/06/14 01:43:48;;;;;;;1.85;0.95;;;16.50;88.80;;;;;;4993388;28;20427;-64
2022/06/14 01:46:22;;;;;;;4.65;1.40;;;16.50;89.00;;;;;;4993335;28;20506;-65
2022/06/14 01:52:28;;;;;;;3.85;1.33;;;16.30;89.10;;;;;;4993421;28;20036;-63
2022/06/14 01:55:13;;;;;;;2.13;1.33;;;16.40;88.80;;;;;;4985494;28;20054;-64
2022/06/14 01:57:54;;;;;;;2.75;1.40;;;16.40;89.70;;;;;;4973630;28;20064;-64
2022/06/14 02:00:26;;;;;;;2.60;1.30;;;16.20;90.20;;;;;;4973884;28;20055;-64
2022/06/14 02:06:23;;;;;;;5.82;1.92;;;16.30;90.20;;;;;;4973763;28;20049;-64
2022/06/14 02:08:59;;;;;;;2.25;1.17;;;16.30;90.30;;;;;;4981545;28;20038;-64
2022/06/14 02:11:33;;;;;;;6.28;1.60;;;16.20;90.40;;;;;;4992986;28;20047;-64
2022/06/14 02:14:33;;;;;;;7.30;1.70;;;16.10;90.50;;;;;;4993095;28;20367;-64
2022/06/14 02:17:06;;;;;;;4.40;1.45;;;16.10;90.10;;;;;;4976727;28;20042;-64
2022/06/14 02:19:48;;;;;;;3.75;1.52;;;16.20;90.60;;;;;;4996651;28;20133;-64
2022/06/14 02:22:33;;;;;;;3.70;1.63;;;16.00;90.30;;;;;;4996612;28;20525;-64
2022/06/14 02:25:14;;;;;;;2.80;1.15;;;16.00;91.00;;;;;;4996668;28;20034;-64
2022/06/14 02:27:51;;;;;;;3.55;1.60;;;16.10;91.00;;;;;;4996465;28;20042;-63
2022/06/14 02:30:21;;;;;;;2.70;1.42;;;16.00;90.50;;;;;;4996528;28;20042;-64
2022/06/14 02:32:55;;;;;;;3.63;1.27;;;16.00;90.20;;;;;;4996655;28;20042;-64
2022/06/14 02:35:31;;;;;;;4.93;1.13;;;16.00;90.90;;;;;;4996474;28;20058;-64
2022/06/14 02:38:08;;;;;;;5.60;1.50;;;16.00;90.90;;;;;;4996525;28;20053;-64
2022/06/14 02:40:56;;;;;;;4.65;1.52;;;15.80;91.00;;;;;;4996232;28;20104;-64
2022/06/14 02:43:38;;;;;;;5.30;1.65;;;15.70;90.90;;;;;;4996262;28;20050;-64
2022/06/14 02:46:16;;;;;;;6.85;1.50;;;15.80;91.10;;;;;;4996204;28;20046;-64
2022/06/14 02:48:52;;;;;;;4.38;1.80;;;15.80;90.70;;;;;;4995960;28;20034;-63
2022/06/14 02:51:37;;;;;;;2.67;1.30;;;15.70;90.80;;;;;;4996080;28;20042;-64
2022/06/14 02:54:21;;;;;;;2.05;1.40;;;15.70;91.30;;;;;;4996050;28;20085;-64
2022/06/14 02:57:04;;;;;;;4.25;1.83;;;15.40;91.40;;;;;;4996112;28;20091;-64
2022/06/14 02:59:40;;;;;;;4.97;1.70;;;15.30;91.40;;;;;;4995949;28;20050;-64
2022/06/14 03:02:18;;;;;;;8.65;1.50;;;15.30;91.50;;;;;;4995786;28;20054;-64
2022/06/14 03:04:50;;;;;;;3.75;1.38;;;15.30;91.60;;;;;;4995662;28;20030;-64
2022/06/14 03:07:31;;;;;;;5.80;1.58;;;15.20;91.60;;;;;;4995585;28;20041;-64
2022/06/14 03:09:58;;;;;;;3.17;1.67;;;15.20;91.80;;;;;;4995490;28;20069;-64
2022/06/14 03:12:29;;;;;;;2.42;1.52;;;15.10;92.10;;;;;;4995538;28;20100;-64
2022/06/14 03:15:16;;;;;;;3.95;1.70;;;15.10;92.40;;;;;;4995674;28;20043;-64
2022/06/14 03:17:57;;;;;;;5.65;1.58;;;15.20;92.80;;;;;;4995600;28;20142;-64
2022/06/14 03:20:44;;;;;;;5.15;1.65;;;15.40;91.40;;;;;;4995534;28;20104;-64
2022/06/14 03:23:13;;;;;;;6.32;1.85;;;15.40;91.60;;;;;;4995532;28;20034;-64
2022/06/14 03:26:13;;;;;;;4.95;1.58;;;15.20;92.10;;;;;;4995502;28;20049;-64
2022/06/14 03:29:04;;;;;;;6.13;1.80;;;15.10;92.00;;;;;;4969153;28;20048;-64
2022/06/14 03:31:44;;;;;;;3.55;1.60;;;15.30;92.10;;;;;;4995534;28;20035;-63
2022/06/14 03:34:12;;;;;;;3.75;1.58;;;15.20;91.90;;;;;;4995295;28;20049;-64
2022/06/14 03:36:38;;;;;;;3.70;1.48;;;15.00;92.60;;;;;;4995182;28;20038;-64
2022/06/14 03:39:24;;;;;;;3.25;1.73;;;15.10;92.50;;;;;;4995207;28;20038;-63
2022/06/14 03:41:53;;;;;;;6.60;1.77;;;14.90;92.50;;;;;;4995309;28;20503;-64
2022/06/14 03:44:21;;;;;;;4.22;1.85;;;15.10;93.20;;;;;;4995055;28;20049;-64
2022/06/14 03:47:11;;;;;;;5.28;1.63;;;15.10;93.10;;;;;;4995087;28;20509;-64
2022/06/14 03:49:40;;;;;;;4.80;1.60;;;15.20;92.50;;;;;;4995083;28;20510;-64
2022/06/14 03:52:32;;;;;;;5.25;1.52;;;15.10;92.80;;;;;;4995192;28;20510;-63
2022/06/14 03:55:10;;;;;;;7.18;1.90;;;14.90;93.50;;;;;;4993852;28;20043;-64
2022/06/14 03:57:36;;;;;;;6.70;1.92;;;14.60;93.40;;;;;;4994951;28;20150;-63
2022/06/14 04:00:31;;;;;;;9.35;1.90;;;14.70;93.60;;;;;;4994514;28;20429;-64
2022/06/14 04:03:15;;;;;;;2.97;1.33;;;14.70;93.40;;;;;;4994827;28;20037;-63
2022/06/14 04:06:02;;;;;;;5.57;1.60;;;14.70;93.20;;;;;;4994715;28;20042;-64
2022/06/14 04:08:42;;;;;;;4.93;1.52;;;14.40;93.90;;;;;;4994722;28;20088;-64
2022/06/14 04:11:11;;;;;;;3.72;1.70;;;14.30;94.10;;;;;;4985998;28;20125;-64
2022/06/14 04:14:01;;;;;;;5.45;1.88;;;14.30;94.20;;;;;;4992312;28;20457;-64
2022/06/14 04:16:34;;;;;;;7.55;1.83;;;14.20;94.40;;;;;;4994276;28;20046;-63
2022/06/14 04:19:16;;;;;;;5.93;1.80;;;14.20;94.50;;;;;;4994624;28;20046;-64
2022/06/14 04:22:09;;;;;;;4.85;1.45;;;14.20;94.70;;;;;;4993127;28;20421;-64
2022/06/14 04:24:51;;;;;;;6.03;1.50;;;14.20;94.80;;;;;;4994454;28;20049;-63
2022/06/14 04:27:34;;;;;;;5.18;1.63;;;14.40;94.40;;;;;;4994366;28;20072;-64
2022/06/14 04:30:17;;;;;;;10.10;2.08;;;14.50;94.10;;;;;;4994396;28;20034;-63
2022/06/14 04:32:58;;;;;;;3.92;1.60;;;14.50;94.20;;;;;;4994364;28;20034;-64
2022/06/14 04:35:50;;;;;;;11.45;2.08;;;14.50;94.50;;;;;;4994102;28;20042;-64
2022/06/14 04:38:40;;;;;;;7.63;1.83;;;14.50;94.30;;;;;;4985141;28;20093;-63
2022/06/14 04:41:16;;;;;;;3.83;1.90;;;14.50;94.70;;;;;;4965302;28;20055;-64
2022/06/14 04:43:57;;;;;;;4.03;1.67;;;14.60;94.50;;;;;;4974460;28;20294;-64
2022/06/14 04:46:27;;;;;;;;;;;14.60;94.30;;;;;;4974727;28;20038;-64
2022/06/14 04:48:58;;;;;;;7.60;1.85;;;14.50;94.50;;;;;;4974473;28;19914;-64
2022/06/14 04:51:37;;;;;;;9.18;2.08;;;14.60;94.60;;;;;;4974724;28;20050;-64
2022/06/14 04:54:24;;;;;;;8.25;1.98;;;14.60;94.70;;;;;;4974505;28;20094;-64
2022/06/14 04:57:05;;;;;;;8.00;2.35;;;14.80;94.30;;;;;;4974847;28;20035;-64
2022/06/14 04:59:51;;;;;;;6.22;1.92;;;14.90;95.10;;;;;;4974488;28;20564;-64
2022/06/14 05:02:32;;;;;;;3.90;1.67;;;14.80;94.80;;;;;;4974226;28;20498;-64
2022/06/14 05:05:17;;;;;;;9.30;1.70;;;14.90;94.70;;;;;;4974339;28;20043;-64
2022/06/14 05:08:19;;;;;;;5.60;1.63;;;14.80;95.70;;;;;;4974327;28;20038;-64
2022/06/14 05:11:20;;;;;;;3.90;1.60;;;14.70;95.80;;;;;;4964359;28;20042;-63
2022/06/14 05:14:11;;;;;;;5.57;2.13;;;14.70;95.70;;;;;;4974233;28;20039;-64
2022/06/14 05:17:00;;;;;;;6.43;1.77;;;15.00;95.40;;;;;;4974079;28;20042;-64
2022/06/14 05:19:35;;;;;;;5.10;1.90;;;15.30;95.50;;;;;;4974215;28;20121;-64
2022/06/14 05:22:08;;;;;;;8.18;1.83;;;15.40;95.10;;;;;;4974304;28;20046;-64
2022/06/14 05:24:36;;;;;;;6.03;2.10;;;15.70;94.80;;;;;;4974099;28;20035;-64
2022/06/14 05:27:04;;;;;;;4.63;1.50;;;15.90;94.90;;;;;;4974214;28;20178;-64
2022/06/14 05:30:08;;;;;;;6.97;1.55;;;16.00;94.60;;;;;;4974127;28;20042;-64
2022/06/14 05:32:48;;;;;;;8.77;1.80;;;16.00;95.30;;;;;;4973028;28;20039;-64
2022/06/14 05:35:35;;;;;;;4.32;1.77;;;16.20;95.00;;;;;;4977214;28;20046;-64
2022/06/14 05:38:16;;;;;;;5.68;1.73;;;16.60;93.80;;;;;;4973026;28;20125;-64
2022/06/14 05:40:52;;;;;;;8.00;2.40;;;17.00;93.30;;;;;;4974201;28;20066;-64
2022/06/14 05:43:28;;;;;;;4.97;1.75;;;17.50;92.20;;;;;;4974098;28;20043;-64
2022/06/14 05:46:11;;;;;;;5.72;1.60;;;17.90;94.20;;;;;;4973776;28;20070;-65
2022/06/14 05:48:52;;;;;;;4.97;1.50;;;18.10;95.20;;;;;;4973579;28;20047;-64
2022/06/14 05:51:23;;;;;;;;;;;18.10;94.80;;;;;;4975852;28;20526;-65
2022/06/14 05:53:57;;;;;;;5.07;1.85;;;18.40;94.40;;;;;;4976818;28;19997;-64
2022/06/14 05:56:31;;;;;;;6.55;1.73;;;18.80;94.00;;;;;;4977193;28;20105;-65
2022/06/14 05:59:14;;;;;;;3.35;1.58;;;18.90;92.50;;;;;;4977366;28;20034;-65
2022/06/14 06:01:51;;;;;;;8.32;1.80;;;18.80;93.80;;;;;;4977337;28;20055;-64
2022/06/14 06:04:36;;;;;;;6.60;2.53;;;18.70;94.40;;;;;;4977545;28;20046;-65
2022/06/14 06:07:08;;;;;;;4.50;1.70;;;18.70;94.90;;;;;;4977347;28;20533;-65
2022/06/14 06:09:44;;;;;;;5.72;2.08;;;18.80;94.10;;;;;;4977533;28;20050;-64
2022/06/14 06:12:14;;;;;;;6.32;2.10;;;18.80;95.40;;;;;;4977429;28;20050;-65
2022/06/14 06:14:49;;;;;;;3.55;1.67;;;19.00;94.50;;;;;;4977535;28;20034;-65
2022/06/14 06:17:33;;;;;;;4.50;1.70;;;18.90;94.80;;;;;;4977419;28;20050;-65
2022/06/14 06:20:13;;;;;;;11.35;2.15;;;19.00;95.20;;;;;;4977186;28;20057;-64
2022/06/14 06:22:45;;;;;;;6.35;1.85;;;19.00;94.30;;;;;;4977295;28;20458;-64
2022/06/14 06:25:15;;;;;;;6.22;2.00;;;19.00;94.00;;;;;;4977284;28;20117;-65
2022/06/14 06:28:16;;;;;;;4.97;1.80;;;18.90;92.00;;;;;;4977223;28;20043;-65
2022/06/14 06:30:53;;;;;;;4.90;1.92;;;19.30;93.20;;;;;;4965723;28;20405;-65
2022/06/14 06:33:22;;;;;;;10.90;2.33;;;19.50;92.20;;;;;;4977120;28;20050;-65
2022/06/14 06:36:04;;;;;;;4.28;1.67;;;19.60;92.70;;;;;;4981448;28;20050;-64
2022/06/14 06:38:42;;;;;;;6.07;1.90;;;19.70;92.60;;;;;;4996440;28;20054;-64
2022/06/14 06:44:07;;;;;;;5.57;1.77;;;20.40;92.90;;;;;;4996361;28;20041;-64
2022/06/14 06:46:38;;;;;;;5.35;1.80;;;20.70;93.20;;;;;;4996153;28;20042;-64
2022/06/14 06:49:08;;;;;;;7.07;2.13;;;20.70;92.80;;;;;;4996281;28;20494;-64
2022/06/14 06:51:47;;;;;;;3.83;1.92;;;20.90;92.80;;;;;;4996060;28;20061;-64
2022/06/14 06:54:34;;;;;;;5.40;1.55;;;21.00;93.50;;;;;;4996131;28;20038;-64
2022/06/14 06:57:01;;;;;;;4.40;1.73;;;21.10;92.00;;;;;;4995980;28;20053;-64
2022/06/14 06:59:38;;;;;;;4.10;1.80;;;21.10;91.70;;;;;;4995986;28;20177;-64
2022/06/14 07:02:29;;;;;;;6.32;1.85;;;21.30;91.80;;;;;;4995487;28;20049;-64
2022/06/14 07:05:03;;;;;;;2.72;1.35;;;21.50;91.90;;;;;;4995811;28;20125;-64
2022/06/14 07:07:49;;;;;;;5.45;1.48;;;21.60;90.90;;;;;;4995658;28;20061;-65
2022/06/14 07:10:33;;;;;;;5.07;1.40;;;21.60;91.00;;;;;;4995665;28;20038;-65
2022/06/14 07:13:07;;;;;;;4.57;1.45;;;21.80;91.00;;;;;;4993167;28;20049;-64
2022/06/14 07:16:06;;;;;;;14.50;3.70;;;21.80;90.90;;;;;;4993366;28;20443;-64
2022/06/14 07:19:22;;;;;;;2.72;1.30;;;22.10;90.80;;;;;;4992842;28;20074;-64
2022/06/14 07:22:00;;;;;;;7.43;1.60;;;22.10;90.90;;;;;;4959371;28;20076;-64
2022/06/14 07:24:31;;;;;;;7.10;2.17;;;22.40;90.90;;;;;;4993101;28;20132;-65
2022/06/14 07:27:13;;;;;;;2.78;1.30;;;22.50;90.00;;;;;;4993493;28;20504;-64
2022/06/14 07:29:44;;;;;;;8.05;2.25;;;22.50;89.40;;;;;;4995361;28;20068;-64
2022/06/14 07:32:25;;;;;;;8.55;1.38;;;22.70;86.20;;;;;;4995333;28;20497;-64
2022/06/14 07:34:51;;;;;;;3.28;1.50;;;22.80;84.60;;;;;;4994947;28;20034;-64
2022/06/14 07:37:41;;;;;;;7.00;2.10;;;23.00;86.90;;;;;;4995027;28;20088;-63
2022/06/14 07:40:14;;;;;;;4.25;1.30;;;23.20;86.20;;;;;;4994954;28;20046;-65
2022/06/14 07:43:20;;;;;;;6.47;1.80;;;23.20;87.40;;;;;;4994651;28;20121;-64
2022/06/14 07:45:49;;;;;;;12.10;2.42;;;22.20;79.90;;;;;;4946186;28;20039;-64
2022/06/14 07:48:25;;;;;;;5.22;1.50;;;22.90;87.30;;;;;;4975646;28;20046;-63
2022/06/14 07:51:09;;;;;;;4.45;1.50;;;23.60;86.10;;;;;;4975711;28;20042;-63
2022/06/14 07:53:48;;;;;;;4.88;1.58;;;23.70;83.40;;;;;;4975672;28;20174;-64
2022/06/14 07:56:29;;;;;;;3.67;1.52;;;23.90;83.40;;;;;;4975593;28;20414;-66
2022/06/14 07:59:19;;;;;;;3.22;1.55;;;23.70;81.30;;;;;;4975770;28;20181;-66
2022/06/14 08:01:59;;;;;;;4.43;1.37;;;24.00;81.00;;;;;;4975487;28;20109;-65
2022/06/14 08:04:39;;;;;;;5.13;1.75;;;23.90;78.00;;;;;;4975483;28;20046;-64
2022/06/14 08:07:17;;;;;;;4.05;1.42;;;23.90;81.80;;;;;;4975290;28;20097;-64
2022/06/14 08:09:51;;;;;;;3.75;1.33;;;24.50;81.30;;;;;;4975187;28;20039;-64
2022/06/14 08:12:26;;;;;;;2.22;1.08;;;25.00;82.10;;;;;;4975214;28;20050;-64
2022/06/14 08:15:25;;;;;;;4.32;1.10;;;25.30;82.10;;;;;;4985124;28;20034;-64
2022/06/14 08:18:22;;;;;;;7.43;1.17;;;25.40;81.60;;;;;;4992622;28;20046;-65
2022/06/14 08:20:53;;;;;;;3.92;1.30;;;25.20;82.70;;;;;;4994781;28;20054;-63
2022/06/14 08:23:39;;;;;;;5.93;1.35;;;24.20;77.70;;;;;;4994616;28;20125;-64
2022/06/14 08:26:27;;;;;;;5.40;1.30;;;25.40;83.60;;;;;;4994563;28;20501;-64
2022/06/14 08:28:59;;;;;;;4.80;1.30;;;25.50;79.10;;;;;;4983753;28;20034;-66
2022/06/14 08:31:38;;;;;;;4.68;1.48;;;25.20;77.10;;;;;;4994265;28;20043;-65
2022/06/14 08:34:25;;;;;;;2.22;1.10;;;25.70;81.50;;;;;;4994296;28;20065;-63
2022/06/14 08:37:09;;;;;;;6.38;1.73;;;25.80;78.30;;;;;;4994167;28;20061;-64
2022/06/14 08:39:45;;;;;;;3.92;1.25;;;25.20;74.80;;;;;;4991045;28;20065;-64
2022/06/14 08:42:32;;;;;;;2.65;1.40;;;25.40;76.00;;;;;;4994260;28;20457;-64
2022/06/14 08:45:38;;;;;;;3.10;1.40;;;24.70;74.90;;;;;;4994179;28;20053;-65
2022/06/14 08:48:06;;;;;;;7.97;1.48;;;25.40;78.20;;;;;;4952932;29;20534;-65
2022/06/14 08:50:58;;;;;;;5.53;1.35;;;26.10;78.50;;;;;;4952711;29;20071;-64
2022/06/14 08:53:45;;;;;;;3.30;1.60;;;26.00;77.30;;;;;;4980472;28;20041;-64
2022/06/14 08:56:49;;;;;;;5.15;1.30;;;25.60;78.90;;;;;;4993965;28;20042;-63
2022/06/14 08:59:21;;;;;;;3.17;1.17;;;25.90;78.00;;;;;;4977987;28;20045;-66
2022/06/14 09:02:20;;;;;;;5.50;1.42;;;25.50;77.20;;;;;;4993691;28;20053;-64
2022/06/14 09:05:07;;;;;;;3.08;1.33;;;25.60;77.80;;;;;;4993893;28;20050;-64
2022/06/14 09:07:39;;;;;;;4.05;1.40;;;25.80;77.40;;;;;;4993821;28;20498;-64
2022/06/14 09:10:46;;;;;;;3.17;1.30;;;26.00;78.40;;;;;;4993441;28;20533;-63
2022/06/14 09:13:49;;;;;;;5.47;1.58;;;26.00;77.80;;;;;;4993629;28;20046;-63
2022/06/14 09:16:38;;;;;;;4.90;1.20;;;25.80;77.50;;;;;;4993757;28;20126;-63
2022/06/14 09:19:39;;;;;;;5.20;1.52;;;26.30;77.00;;;;;;4992192;28;20546;-64
2022/06/14 09:22:35;;;;;;;3.90;1.70;;;26.40;78.20;;;;;;4977428;28;20537;-64
2022/06/14 09:25:25;;;;;;;4.88;1.20;;;26.20;79.80;;;;;;4989253;28;20038;-64
2022/06/14 09:28:03;;;;;;;;;;;26.10;77.10;;;;;;5000734;28;20041;-64
2022/06/14 09:30:41;;;;;;;4.22;1.90;;;26.40;79.00;;;;;;5000058;28;20052;-63
2022/06/14 09:33:31;;;;;;;4.47;1.42;;;27.10;79.60;;;;;;4999870;28;20095;-66
2022/06/14 09:36:09;;;;;;;5.80;1.38;;;27.30;78.30;;;;;;4999933;28;20047;-66
2022/06/14 09:38:53;;;;;;;5.82;1.60;;;27.40;75.70;;;;;;4999956;28;20094;-66
2022/06/14 09:41:34;;;;;;;5.55;1.60;;;27.20;75.30;;;;;;4999822;28;20046;-63
2022/06/14 09:44:28;;;;;;;7.53;1.50;;;26.80;75.70;;;;;;4999493;28;20046;-66
2022/06/14 09:47:13;;;;;;;3.47;1.50;;;26.50;76.00;;;;;;4999870;28;20066;-64
2022/06/14 09:49:57;;;;;;;4.72;1.38;;;26.40;75.20;;;;;;4999666;28;20089;-67
2022/06/14 09:52:58;;;;;;;3.70;1.63;;;26.60;77.40;;;;;;4999505;28;20046;-66
2022/06/14 09:55:48;;;;;;;5.35;1.95;;;26.70;75.90;;;;;;4957643;28;20121;-65
2022/06/14 09:58:23;;;;;;;;;;;27.00;75.10;;;;;;4999955;28;20414;-67
2022/06/14 10:01:10;;;;;;;2.95;1.25;;;26.70;73.40;;;;;;4999788;28;19945;-66
2022/06/14 10:03:53;;;;;;;3.90;1.60;;;26.80;74.00;;;;;;4999794;28;20514;-65
2022/06/14 10:06:38;;;;;;;4.53;1.83;;;27.40;74.60;;;;;;4999908;28;20099;-66
2022/06/14 10:09:28;;;;;;;4.53;1.50;;;27.40;72.00;;;;;;4999846;28;20052;-66
2022/06/14 10:12:42;;;;;;;4.85;1.45;;;27.30;74.00;;;;;;4999754;28;20117;-66
2022/06/14 10:15:21;;;;;;;4.75;1.27;;;27.50;72.90;;;;;;4955500;28;20046;-66
2022/06/14 10:17:57;;;;;;;4.75;1.92;;;27.30;72.40;;;;;;4998496;28;20092;-64
2022/06/14 10:20:58;;;;;;;3.88;1.85;;;27.50;70.20;;;;;;4997321;28;20053;-66
2022/06/14 10:23:35;;;;;;;7.05;1.88;;;27.20;72.60;;;;;;4998744;28;20074;-66
2022/06/14 10:29:40;;;;;;;6.68;2.20;;;28.40;71.50;;;;;;4997530;28;20081;-64
2022/06/14 10:32:11;;;;;;;6.50;2.92;;;28.20;71.70;;;;;;4998911;28;20038;-66
2022/06/14 10:34:49;;;;;;;5.07;1.90;;;27.90;71.40;;;;;;4998325;28;20390;-65
2022/06/14 10:37:29;;;;;;;5.55;1.75;;;27.60;70.00;;;;;;4995451;28;20072;-64
2022/06/14 10:40:06;;;;;;;6.55;1.77;;;27.40;68.80;;;;;;4995656;28;20057;-64
2022/06/14 10:43:17;;;;;;;6.05;1.80;;;27.70;70.60;;;;;;4995907;28;20057;-63
2022/06/14 10:45:46;;;;;;;;;;;27.70;70.90;;;;;;4944089;28;20050;-62
2022/06/14 10:48:36;;;;;;;4.50;2.00;;;27.90;71.00;;;;;;4974954;28;19910;-63
2022/06/14 10:51:30;;;;;;;6.60;2.15;;;28.30;71.90;;;;;;4974872;28;20073;-62
2022/06/14 10:53:55;;;;;;;7.45;1.88;;;28.30;70.10;;;;;;4974611;28;20454;-62
2022/06/14 10:56:27;;;;;;;5.32;1.63;;;28.10;69.20;;;;;;4974463;28;20035;-62
2022/06/14 10:59:06;;;;;;;5.50;1.13;;;28.10;70.30;;;;;;4974246;28;20042;-62
2022/06/14 11:02:13;;;;;;;3.67;1.23;;;27.60;68.70;;;;;;4974356;28;20059;-65
2022/06/14 11:05:07;;;;;;;4.55;1.20;;;27.60;67.60;;;;;;4950950;28;20047;-64
2022/06/14 11:07:36;;;;;;;3.53;1.13;;;27.90;67.90;;;;;;4963618;28;20043;-65
2022/06/14 11:10:20;;;;;;;2.80;1.45;;;27.10;71.70;;;;;;4975431;28;20047;-65
2022/06/14 11:13:06;;;;;;;9.40;1.80;;;26.70;71.10;;;;;;4974352;28;20697;-65
2022/06/14 11:15:49;;;;;;;1.98;1.35;;;26.80;69.60;;;;;;4974198;28;20062;-65
2022/06/14 11:18:15;;;;;;;3.45;1.52;;;27.20;68.40;;;;;;4974463;28;20074;-65
2022/06/14 11:20:59;;;;;;;4.25;1.70;;;26.60;68.40;;;;;;4974807;28;20050;-66
2022/06/14 11:23:30;;;;;;;3.13;1.55;;;26.00;69.80;;;;;;4975761;28;20039;-65
2022/06/14 11:26:06;;;;;;;2.78;1.27;;;26.80;70.00;;;;;;4975806;28;20054;-65
2022/06/14 11:28:36;;;;;;;4.97;1.55;;;26.80;68.30;;;;;;4975402;28;20402;-65
2022/06/14 11:31:11;;;;;;;4.63;1.48;;;27.10;69.30;;;;;;4974233;28;20045;-65
2022/06/14 11:33:50;;;;;;;5.35;1.60;;;27.10;69.90;;;;;;4973832;28;20098;-65
2022/06/14 11:36:42;;;;;;;3.55;1.42;;;26.70;70.00;;;;;;4992768;28;20045;-65
2022/06/14 11:39:26;;;;;;;4.50;1.60;;;26.80;70.30;;;;;;4992513;28;20124;-64
2022/06/14 11:41:53;;;;;;;6.00;1.77;;;26.80;67.50;;;;;;4986532;28;20077;-64
2022/06/14 11:44:36;;;;;;;8.23;2.03;;;27.00;67.60;;;;;;4990745;28;20741;-64
2022/06/14 11:50:45;;;;;;;4.88;1.70;;;26.90;69.30;;;;;;5011258;28;20080;-67
2022/06/14 11:53:14;;;;;;;5.57;1.77;;;26.20;67.50;;;;;;5012462;28;20038;-67
2022/06/14 11:56:05;;;;;;;4.63;1.38;;;26.80;68.00;;;;;;5012518;28;20038;-67
2022/06/14 11:58:57;;;;;;;7.63;1.80;;;26.80;67.90;;;;;;5006481;28;20037;-66
2022/06/14 12:01:59;;;;;;;7.35;1.92;;;27.10;68.30;;;;;;4993145;28;20056;-66
2022/06/14 12:04:43;;;;;;;6.13;1.95;;;26.90;67.80;;;;;;4998351;28;20049;-67
2022/06/14 12:07:14;;;;;;;3.20;1.10;;;27.40;68.60;;;;;;4993989;28;20042;-66
2022/06/14 12:10:17;;;;;;;5.57;1.50;;;26.90;68.20;;;;;;4994118;28;20046;-67
2022/06/14 12:12:46;;;;;;;3.85;1.40;;;26.80;67.40;;;;;;4991597;28;20105;-66
2022/06/14 12:15:26;;;;;;;5.57;1.30;;;27.20;68.30;;;;;;4991289;28;20074;-67
2022/06/14 12:17:54;;;;;;;;;;;27.00;67.00;;;;;;4985064;28;20044;-66
2022/06/14 12:20:25;;;;;;;4.13;1.60;;;27.50;66.20;;;;;;4991450;28;19917;-66
2022/06/14 12:23:31;;;;;;;4.53;1.50;;;27.00;66.30;;;;;;4993080;28;20050;-67
2022/06/14 12:26:37;;;;;;;3.28;1.30;;;27.40;65.90;;;;;;4993891;28;20034;-67
2022/06/14 12:29:05;;;;;;;3.60;1.30;;;27.40;66.00;;;;;;4992100;28;20057;-66
2022/06/14 12:31:46;;;;;;;3.63;1.20;;;27.40;64.30;;;;;;4991812;28;20042;-67
2022/06/14 12:34:12;;;;;;;3.65;1.67;;;27.60;67.40;;;;;;4993383;28;20049;-67
2022/06/14 12:36:40;;;;;;;2.47;1.45;;;26.80;65.20;;;;;;4992361;28;20042;-67
2022/06/14 12:39:37;;;;;;;7.57;1.67;;;26.80;64.30;;;;;;4976117;28;20129;-67
2022/06/14 12:42:15;;;;;;;3.78;1.30;;;27.20;65.60;;;;;;4972101;28;20065;-67
2022/06/14 12:44:59;;;;;;;7.53;1.83;;;27.40;64.70;;;;;;4973695;28;20042;-67
2022/06/14 12:47:51;;;;;;;6.03;1.20;;;27.50;64.80;;;;;;4974388;28;20042;-67
2022/06/14 12:50:35;;;;;;;4.82;1.42;;;27.30;63.80;;;;;;4973435;28;20053;-67
2022/06/14 12:53:42;;;;;;;3.00;1.17;;;27.20;63.20;;;;;;4972274;28;20047;-67
2022/06/14 12:56:19;;;;;;;4.38;1.42;;;27.30;64.60;;;;;;4957268;28;20133;-66
2022/06/14 12:59:03;;;;;;;3.42;1.65;;;27.40;66.20;;;;;;4974169;28;20059;-66
2022/06/14 13:01:50;;;;;;;5.55;1.67;;;27.60;65.00;;;;;;4972570;28;20051;-66
2022/06/14 13:04:32;;;;;;;1.38;1.00;;;27.50;63.30;;;;;;4974393;28;20097;-66
2022/06/14 13:07:00;;;;;;;5.60;1.80;;;27.80;64.10;;;;;;4974428;28;20089;-66
2022/06/14 13:10:01;;;;;;;5.20;1.85;;;27.30;62.10;;;;;;4974268;28;20043;-66
2022/06/14 13:12:43;;;;;;;3.15;1.45;;;27.30;63.50;;;;;;4989115;28;20049;-67
2022/06/14 13:15:21;;;;;;;3.15;1.40;;;27.20;63.90;;;;;;4990944;28;20117;-67
2022/06/14 13:18:12;;;;;;;3.75;1.52;;;27.40;64.60;;;;;;4988364;28;20561;-67
2022/06/14 13:21:11;;;;;;;7.00;1.58;;;27.60;63.00;;;;;;4991112;28;20054;-67
2022/06/14 13:23:58;;;;;;;3.58;1.98;;;27.30;63.20;;;;;;4991603;28;20541;-67
2022/06/14 13:26:48;;;;;;;3.25;1.33;;;27.70;63.10;;;;;;4991702;28;20046;-66
2022/06/14 13:29:30;;;;;;;3.70;1.98;;;27.90;61.80;;;;;;4991442;28;20042;-67
2022/06/14 13:32:05;;;;;;;5.13;1.40;;;27.80;61.90;;;;;;4990383;28;20065;-67
2022/06/14 13:34:51;;;;;;;5.25;1.23;;;27.70;62.50;;;;;;4990780;28;20448;-67
2022/06/14 13:37:29;;;;;;;3.00;1.20;;;27.60;61.70;;;;;;4986301;28;20441;-67
2022/06/14 13:40:00;;;;;;;3.72;1.55;;;27.50;60.90;;;;;;4991808;28;20042;-67
2022/06/14 13:42:37;;;;;;;6.97;1.50;;;27.80;62.80;;;;;;4992127;28;20050;-66
2022/06/14 13:45:25;;;;;;;3.90;1.58;;;27.80;62.30;;;;;;4991105;28;20042;-66
2022/06/14 13:47:58;;;;;;;2.33;1.20;;;27.70;61.30;;;;;;4991148;28;20062;-66
2022/06/14 13:50:54;;;;;;;4.95;1.50;;;27.60;59.80;;;;;;4990016;28;20525;-66
2022/06/14 13:53:27;;;;;;;2.85;1.40;;;27.60;60.70;;;;;;4954609;28;20047;-68
2022/06/14 13:56:11;;;;;;;3.53;1.23;;;27.50;59.40;;;;;;4991279;28;20038;-67
2022/06/14 13:59:06;;;;;;;2.55;1.13;;;27.50;60.60;;;;;;4991436;28;20145;-68
2022/06/14 14:01:40;;;;;;;3.55;1.20;;;27.50;60.60;;;;;;4991924;28;20413;-68
2022/06/14 14:04:21;;;;;;;4.63;1.13;;;27.40;61.40;;;;;;4990801;28;20053;-67
2022/06/14 14:07:00;;;;;;;2.85;1.20;;;27.60;62.30;;;;;;4991383;28;20042;-67
2022/06/14 14:09:53;;;;;;;9.90;1.60;;;27.70;61.60;;;;;;4991119;28;20128;-67
2022/06/14 14:12:36;;;;;;;3.33;1.35;;;27.60;62.40;;;;;;4985683;28;20510;-67
2022/06/14 14:15:24;;;;;;;3.45;1.35;;;27.90;61.60;;;;;;4994022;28;20057;-67